Planalto Alegre, Brazil
Current Conditions -  °F | °C
As of 3:00 PM on Thursday 18 Dec 2014 (Local Time) from SBCH Reporting Station
Scattered Clouds Scattered Clouds  
Wind Chill: 84°   Ceiling: Unl
Heat Index: 86°   Visibility: 6mi
Dew Point: 66°   Wind: 0mph
Humidity: 55%   Direction: NA
Pressure: 29.88"   Gusts: NA
Location:  27.07°S, 52.87°W
Report Text: SBCH 181700Z 00000KT 9999 SCT030 29/19 Q1012
Loading
Personal Weather Stations






























Interactive Weather Map New forecast layout! Learn more

10-Day Weather Forecast

Advertisements
Track Severe Weather on mobile